Flight Track Log - Related Links

Times and Time Zones

All times are in EDT time to prevent confusion due to time zone crossing. See the AMF413 flight status page for this flight to view local times or setup timezone preferences in your user account.

Time Position Orientation Groundspeed Altitude Reporting Facility
EDT Latitude Longitude Course Direction KTS MPH feet Rate Location/Type
Fri 11:18:56 PM 45.6406 -119.2194 255° West 157 181 6,500  Level Seattle Center
Fri 11:19:56 PM 45.6247 -119.2778 249° West 159 183 6,700 744 Climbing Seattle Center
Fri 11:20:57 PM 45.6147 -119.3483 259° West 154 177 8,000 639 Climbing Seattle Center
Fri 11:21:58 PM 45.6028 -119.4100 255° West 157 181 8,000  Level Seattle Center
Fri 11:22:58 PM 45.5903 -119.4694 253° West 158 182 8,000 -50 Level Seattle Center
Fri 11:23:59 PM 45.5778 -119.5283 253° West 157 181 7,900  Descending Seattle Center
Fri 11:24:00 PM 45.6571 -119.1279 255° West  Level FlightAware Approximate
Fri 11:25:00 PM 45.5656 -119.5858 253° West 155 178 8,000  Level Seattle Center
Fri 11:26:01 PM 45.5531 -119.6442 253° West 154 177 8,000  Level Seattle Center
Fri 11:27:01 PM 45.5403 -119.7050 253° West 158 182 8,000 -50 Level Seattle Center
Fri 11:28:02 PM 45.5281 -119.7656 254° West 159 183 7,900  Descending Seattle Center
Fri 11:29:03 PM 45.5267 -119.8267 268° West 157 181 8,000 50 Climbing Seattle Center
Fri 11:30:03 PM 45.5394 -119.8881 287° West 158 182 8,000  Level Seattle Center
Fri 11:31:04 PM 45.5494 -119.9506 283° West 161 185 8,000  Level Seattle Center
Fri 11:32:05 PM 45.5589 -120.0139 282° West 162 186 8,000  Level Seattle Center
Fri 11:33:05 PM 45.5675 -120.0792 281° West 165 190 8,000 -50 Level Seattle Center
Fri 11:34:06 PM 45.5769 -120.1450 282° West 167 192 7,900  Descending Seattle Center
Fri 11:35:07 PM 45.5858 -120.2106 281° West 169 194 8,000 50 Climbing Seattle Center
Fri 11:36:07 PM 45.5981 -120.2883 283° West 169 194 8,000  Level Seattle Center
Fri 11:37:08 PM 45.6069 -120.3517 281° West 167 192 8,000 -49 Level Seattle Center
Fri 11:38:09 PM 45.6161 -120.4150 282° West 165 190 7,900  Descending Seattle Center
Fri 11:39:09 PM 45.6247 -120.4800 281° West 166 191 8,000 50 Climbing Seattle Center
Fri 11:40:10 PM 45.6342 -120.5453 282° West 167 192 8,000  Level Seattle Center
Fri 11:41:11 PM 45.6439 -120.6097 282° West 167 192 8,000  Level Seattle Center
Fri 11:42:11 PM 45.6533 -120.6744 282° West 167 192 8,000  Level Seattle Center
Fri 11:43:12 PM 45.6611 -120.7386 280° West 166 191 8,000  Level Seattle Center
Fri 11:44:13 PM 45.6706 -120.8031 282° West 166 191 8,000  Level Seattle Center
Fri 11:45:13 PM 45.6786 -120.8653 281° West 164 189 8,000  Level Seattle Center
Fri 11:46:14 PM 45.6869 -120.9278 281° West 162 186 8,000  Level Seattle Center
Fri 11:47:15 PM 45.6969 -120.9917 283° West 164 189 8,000  Level Seattle Center
Fri 11:48:15 PM 45.7058 -121.0561 281° West 165 190 8,000 -50 Level Seattle Center
Fri 11:49:16 PM 45.7144 -121.1219 281° West 167 192 7,900  Descending Seattle Center
Fri 11:50:16 PM 45.7139 -121.1914 269° West 174 200 8,000 50 Climbing Seattle Center
Fri 11:51:17 PM 45.7161 -121.2578 273° West 170 196 8,000  Level Seattle Center
Fri 11:52:18 PM 45.7186 -121.3383 273° West 170 196 8,000  Level Seattle Center
Fri 11:53:18 PM 45.7203 -121.4058 272° West 169 194 8,000  Level Seattle Center
Fri 11:54:19 PM 45.7217 -121.4714 272° West 168 193 8,000  Level Seattle Center
Fri 11:54:36 PM 45.7236 -121.4906 278° West 167 192 8,000 -171 Level Seattle Center
Fri 11:54:54 PM 45.7239 -121.5122 271° West 165 190 7,900  Descending Seattle Center
Fri 11:55:20 PM 45.7236 -121.5361 269° West 165 190 8,000 98 Climbing Seattle Center
Fri 11:55:55 PM 45.7264 -121.5764 276° West 160 184 8,000  Level Seattle Center
Fri 11:56:20 PM 45.7247 -121.5997 264° West 161 185 8,000  Level Seattle Center
Fri 11:56:56 PM 45.7272 -121.6414 275° West 162 186 8,000  Level Seattle Center
Fri 11:57:21 PM 45.7278 -121.6639 272° West 162 186 8,000  Level Seattle Center
Fri 11:57:57 PM 45.7308 -121.7111 275° West 165 190 8,000  Level Seattle Center
Fri 11:58:22 PM 45.7294 -121.7286 264° West 163 188 8,000  Level Seattle Center
Fri 11:58:58 PM 45.7308 -121.7731 273° West 159 183 8,000 -100 Level Seattle Center
Fri 11:59:22 PM 45.7308 -121.7908 270° West 158 182 7,900 -91 Descending Seattle Center
Sat 12:00:04 AM 45.7339 -121.8400 275° West 158 182 7,900  Level Seattle Center
Sat 12:00:23 AM 45.7322 -121.8536 260° West 158 182 7,900 98 Level Seattle Center
Sat 12:01:05 AM 45.7344 -121.9050 274° West 163 188 8,000  Climbing Seattle Center
Sat 12:01:24 AM 45.7344 -121.9194 270° West 164 189 7,900 -800 Descending Seattle Center
Sat 12:02:05 AM 45.7386 -121.9778 276° West 172 198 7,200 -700 Descending Seattle Center
Sat 12:02:24 AM 45.7378 -121.9922 265° West 173 199 7,200 -492 Level Seattle Center
Sat 12:03:06 AM 45.7356 -122.0472 267° West 180 207 6,700 -590 Descending Seattle Center
Sat 12:03:25 AM 45.7358 -122.0636 271° West 180 207 6,600 -885 Descending Seattle Center
Sat 12:04:07 AM 45.7372 -122.1178 272° West 178 205 5,800 -1,000 Descending Seattle Center
Sat 12:04:25 AM 45.7378 -122.1361 272° West 183 211 5,600 -222 Descending Seattle Center
Sat 12:05:01 AM 45.7375 -122.1828 270° West 176 203 5,600 -98 Level Seattle Center
Sat 12:05:26 AM 45.7411 -122.2050 283° West 180 207 5,500 -98 Descending Seattle Center
Sat 12:06:02 AM 45.7411 -122.2433 270° West 146 168 5,500  Level Seattle Center
Sat 12:06:27 AM 45.7447 -122.2636 284° West 159 183 5,500 -109 Level Seattle Center
Sat 12:06:57 AM 45.7436 -122.2981 267° West 147 169 5,400 -200 Descending Seattle Center
Sat 12:07:27 AM 45.7406 -122.3228 260° West 153 176 5,300 -700 Descending Seattle Center
Sat 12:07:57 AM 45.7217 -122.3506 226° Southwest 164 189 4,700 -1,279 Descending Seattle Center
Sat 12:08:28 AM 45.7133 -122.3764 245° Southwest 163 188 4,000 -1,343 Descending Seattle Center
Sat 12:09:04 AM 45.6883 -122.4108 224° Southwest 180 207 3,200 -1,180 Descending Seattle Center
Sat 12:09:29 AM 45.6797 -122.4300 237° Southwest 175 201 2,800 -1,300 Descending Seattle Center
Sat 12:10:04 AM 45.6650 -122.4761 245° Southwest 172 198 1,900 -1,100 Descending Seattle Center
Sat 12:10:29 AM 45.6569 -122.4894 229° Southwest 173 199 1,700 -295 Descending Seattle Center
Sat 12:11:05 AM 45.6347 -122.5194 223° Southwest 146 168 1,600 -197 Descending Seattle Center
Sat 12:11:30 AM 45.6269 -122.5328 230° Southwest 165 190 1,500 -400 Descending Seattle Center
Sat 12:12:05 AM 45.6058 -122.5592 221° Southwest 135 155 1,200 -200 Descending Seattle Center
Sat 12:12:30 AM 45.6006 -122.5675 228° Southwest 146 168 1,300  Climbing Seattle Center
Sat 12:13:00 AM 45.5853 -122.5861 220° Southwest 117 135 1,200 -393 Descending Seattle Center
Sat 12:13:31 AM 45.5750 -122.5975 218° Southwest 131 151 900 -492 Descending Seattle Center
Sat 12:14:01 AM 45.5653 -122.6158 233° Southwest 104 120 700 -197 Descending Seattle Center
Sat 12:14:32 AM 45.5525 -122.6319 221° Southwest 121 139 700  Level Seattle Center

Login

Don't have an account? Register now (free) for customized features, flight alerts, and more!